Time;durP1;ratioP1;P1;durP2;ratioP2;P2;SDS_P1;SDS_P2;PMS_P1;PMS_P2;Temp;Humidity;BMP_temperature;BMP_pressure;BME280_temperature;BME280_humidity;BME280_pressure;Samples;Min_cycle;Max_cycle;Signal;HPM_P1;HPM_P2
2021/12/15 00:00:27;;;;;;;44.43;23.57;;;;;;;9.13;68.60;97903.56;5073956;28;20937;-69
2021/12/15 00:02:53;;;;;;;40.03;22.57;;;;;;;9.15;68.67;97912.13;5071640;28;20448;-71
2021/12/15 00:05:24;;;;;;;41.97;22.23;;;;;;;9.19;68.85;97910.91;5060109;28;20197;-67
2021/12/15 00:07:55;;;;;;;42.37;23.73;;;;;;;9.12;68.89;97914.97;5071885;28;20206;-68
2021/12/15 00:10:22;;;;;;;47.97;22.80;;;;;;;9.07;69.75;97902.28;5066668;28;20423;-67
2021/12/15 00:12:48;;;;;;;44.53;23.13;;;;;;;9.12;69.67;97907.13;5064061;28;20414;-68
2021/12/15 00:15:14;;;;;;;44.93;23.13;;;;;;;9.07;69.34;97908.31;5069436;28;20947;-67
2021/12/15 00:17:39;;;;;;;43.17;23.10;;;;;;;9.12;69.40;97904.50;5062154;28;20269;-69
2021/12/15 00:20:12;;;;;;;44.30;22.87;;;;;;;9.17;69.34;97897.13;5061986;28;20453;-68
2021/12/15 00:22:38;;;;;;;48.67;23.53;;;;;;;9.09;69.44;97905.59;5022101;28;20179;-67
2021/12/15 00:25:06;;;;;;;45.80;23.53;;;;;;;9.15;69.54;97899.84;5031144;28;20417;-70
2021/12/15 00:27:31;;;;;;;47.10;23.10;;;;;;;9.29;69.18;97905.75;5068169;28;20206;-67
2021/12/15 00:29:57;;;;;;;33.73;17.97;;;;;;;9.37;69.09;97900.72;5054934;28;20413;-68
2021/12/15 00:32:23;;;;;;;24.30;14.20;;;;;;;9.38;68.44;97905.00;5073339;28;20648;-69
2021/12/15 00:34:51;;;;;;;41.27;20.80;;;;;;;8.93;69.21;97907.81;5071545;28;20181;-69
2021/12/15 00:37:17;;;;;;;50.40;24.27;;;;;;;9.07;69.37;97910.13;5067014;28;20209;-67
2021/12/15 00:39:44;;;;;;;45.63;22.70;;;;;;;9.12;69.25;97910.59;5050523;28;20525;-68
2021/12/15 00:42:10;;;;;;;42.03;22.30;;;;;;;9.15;69.56;97909.50;5057743;28;20420;-68
2021/12/15 00:44:36;;;;;;;50.47;24.00;;;;;;;9.07;69.87;97910.94;5064966;28;20187;-67
2021/12/15 00:47:03;;;;;;;50.80;24.40;;;;;;;9.10;69.89;97912.50;5055087;28;20202;-70
2021/12/15 00:49:29;;;;;;;54.07;25.47;;;;;;;9.19;68.96;97910.91;5055943;28;20185;-68
2021/12/15 00:51:55;;;;;;;47.80;23.03;;;;;;;9.11;69.65;97908.94;5062618;28;20522;-67
2021/12/15 00:54:22;;;;;;;45.70;23.37;;;;;;;9.13;69.42;97914.03;5070549;28;20964;-68
2021/12/15 00:56:50;;;;;;;52.23;22.50;;;;;;;9.13;69.59;97917.50;5074242;28;20417;-70
2021/12/15 00:59:16;;;;;;;42.67;22.50;;;;;;;9.23;69.45;97917.53;5080164;28;20429;-67
2021/12/15 01:01:42;;;;;;;47.47;21.17;;;;;;;9.09;69.47;97916.06;5063723;28;20459;-68
2021/12/15 01:04:11;;;;;;;39.13;21.70;;;;;;;9.04;69.02;97920.81;5061905;28;20175;-70
2021/12/15 01:06:38;;;;;;;37.23;20.67;;;;;;;8.92;69.63;97920.06;5061854;28;20445;-70
2021/12/15 01:09:11;;;;;;;50.93;24.30;;;;;;;8.91;69.92;97913.16;5063932;28;20428;-69
2021/12/15 01:12:45;;;;;;;56.50;24.20;;;;;;;9.01;70.04;97921.91;5080184;28;20421;-69
2021/12/15 01:19:54;;;;;;;46.07;24.90;;;;;;;8.96;69.72;97916.22;5054393;28;20434;-68
2021/12/15 01:22:37;;;;;;;43.70;22.80;;;;;;;9.05;69.53;97920.72;5052927;28;20515;-67
2021/12/15 01:25:22;;;;;;;45.87;24.10;;;;;;;9.09;69.40;97923.06;5044099;28;20499;-68
2021/12/15 01:27:48;;;;;;;44.53;23.50;;;;;;;9.06;70.39;97922.38;5050012;28;20457;-68
2021/12/15 01:30:16;;;;;;;40.40;21.87;;;;;;;9.06;69.88;97925.00;5058471;28;20433;-69
2021/12/15 01:32:42;;;;;;;43.10;22.57;;;;;;;9.02;70.47;97925.34;5059869;28;20516;-67
2021/12/15 01:35:09;;;;;;;49.83;23.70;;;;;;;9.04;70.67;97932.13;5055968;28;20849;-68
2021/12/15 01:37:35;;;;;;;45.70;24.30;;;;;;;9.09;69.95;97928.28;5072130;28;20440;-66
2021/12/15 01:40:00;;;;;;;44.50;22.53;;;;;;;9.14;70.29;97926.16;5072268;28;20424;-68
2021/12/15 01:42:30;;;;;;;43.40;22.60;;;;;;;9.18;70.53;97924.94;5064698;28;20194;-69
2021/12/15 01:47:41;;;;;;;41.00;22.30;;;;;;;9.16;69.95;97939.94;5072147;28;20461;-66
2021/12/15 01:50:08;;;;;;;44.40;23.03;;;;;;;9.10;70.03;97938.66;5066661;28;20425;-68
2021/12/15 01:52:37;;;;;;;43.43;22.53;;;;;;;9.14;69.68;97937.44;5063989;28;20568;-67
2021/12/15 01:55:10;;;;;;;43.70;22.20;;;;;;;9.13;70.06;97933.19;5062567;28;20481;-68
2021/12/15 01:57:36;;;;;;;44.90;21.73;;;;;;;9.09;69.45;97936.13;5068388;28;20528;-67
2021/12/15 02:00:10;;;;;;;45.17;21.33;;;;;;;9.13;69.66;97934.94;5061718;28;20931;-68
2021/12/15 02:02:35;;;;;;;37.73;20.87;;;;;;;9.03;70.50;97942.69;5070900;28;20428;-70
2021/12/15 02:05:01;;;;;;;22.33;13.30;;;;;;;9.13;69.39;97932.34;5064156;28;20903;-68
2021/12/15 02:07:27;;;;;;;24.03;13.27;;;;;;;9.18;69.10;97936.22;5070766;28;20559;-68
2021/12/15 02:12:23;;;;;;;34.77;18.57;;;;;;;9.04;69.51;97934.75;5059120;28;20638;-68
2021/12/15 02:14:50;;;;;;;34.67;19.43;;;;;;;9.07;69.69;97934.47;5058754;28;20562;-68
2021/12/15 02:17:16;;;;;;;39.20;21.13;;;;;;;9.00;69.18;97935.94;5064352;28;20441;-67
2021/12/15 02:19:41;;;;;;;49.07;20.07;;;;;;;9.03;69.69;97932.25;5062395;28;20442;-68
2021/12/15 02:22:07;;;;;;;39.50;19.37;;;;;;;9.03;70.02;97925.25;5064250;28;20776;-68
2021/12/15 02:24:35;;;;;;;34.50;19.00;;;;;;;9.12;69.96;97931.50;5070166;28;20427;-69
2021/12/15 02:27:03;;;;;;;23.13;13.33;;;;;;;9.19;69.03;97926.63;5062976;28;20213;-70
2021/12/15 02:29:33;;;;;;;20.20;11.97;;;;;;;9.15;68.96;97922.56;5066099;28;20424;-68
2021/12/15 02:32:12;;;;;;;21.60;12.00;;;;;;;9.19;68.42;97921.38;5068248;28;20429;-68
2021/12/15 02:37:22;;;;;;;22.63;14.03;;;;;;;9.18;68.70;97923.16;5055175;28;20452;-69
2021/12/15 02:40:05;;;;;;;28.50;15.10;;;;;;;9.20;68.62;97928.25;5068106;28;20460;-67
2021/12/15 02:42:35;;;;;;;26.80;14.40;;;;;;;9.06;68.90;97926.78;5062796;28;20426;-67
2021/12/15 02:45:01;;;;;;;26.40;14.67;;;;;;;9.11;68.52;97923.78;5070341;28;20424;-68
2021/12/15 02:47:29;;;;;;;27.00;15.57;;;;;;;9.21;68.08;97930.75;5057429;28;20888;-67
2021/12/15 02:49:57;;;;;;;26.73;16.50;;;;;;;9.22;68.52;97934.19;5063497;28;20429;-68
2021/12/15 02:52:23;;;;;;;24.23;15.03;;;;;;;9.13;68.07;97929.72;5070536;28;20518;-68
2021/12/15 02:54:49;;;;;;;27.77;15.07;;;;;;;9.12;68.09;97923.66;5061421;28;20426;-67
2021/12/15 02:57:15;;;;;;;23.90;14.70;;;;;;;9.21;68.08;97928.13;5069629;28;20535;-69
2021/12/15 02:59:53;;;;;;;30.33;17.53;;;;;;;9.27;67.88;97921.56;5067476;28;20186;-67
2021/12/15 03:02:54;;;;;;;32.97;16.90;;;;;;;9.31;68.33;97919.53;5063654;28;20421;-67
2021/12/15 03:05:21;;;;;;;22.90;14.20;;;;;;;9.27;67.72;97918.97;5044120;28;20433;-68
2021/12/15 03:08:15;;;;;;;26.93;15.93;;;;;;;9.34;67.55;97919.28;5057210;28;20464;-68
2021/12/15 03:16:11;;;;;;;33.33;17.43;;;;;;;9.14;68.23;97934.00;5062776;28;20422;-70
2021/12/15 03:18:37;;;;;;;31.10;16.73;;;;;;;9.16;68.31;97939.94;5058344;28;20460;-70
2021/12/15 03:21:13;;;;;;;31.07;16.80;;;;;;;9.20;67.99;97934.31;5050019;28;20734;-68
2021/12/15 03:23:50;;;;;;;30.33;16.80;;;;;;;9.20;68.18;97938.72;5049095;28;20280;-69
2021/12/15 03:26:28;;;;;;;30.13;16.50;;;;;;;9.23;67.88;97941.06;5069080;28;20432;-68
2021/12/15 03:39:25;;;;;;;32.63;16.67;;;;;;;9.18;68.09;97943.25;5074863;28;20435;-69
2021/12/15 03:41:59;;;;;;;33.87;17.63;;;;;;;9.21;68.13;97940.38;5077895;28;20885;-70
2021/12/15 03:44:25;;;;;;;31.27;17.57;;;;;;;9.04;68.33;97939.97;5084965;28;20511;-68
2021/12/15 03:46:51;;;;;;;26.20;17.10;;;;;;;9.12;68.36;97943.75;5064598;28;20461;-70
2021/12/15 03:49:17;;;;;;;31.37;17.03;;;;;;;9.24;68.37;97947.97;5063684;28;20518;-68
2021/12/15 03:51:42;;;;;;;31.70;17.30;;;;;;;9.05;68.98;97952.09;5067905;28;20221;-68
2021/12/15 03:54:08;;;;;;;23.10;14.00;;;;;;;9.09;68.59;97944.84;5074269;28;20424;-69
2021/12/15 03:56:36;;;;;;;15.33;9.23;;;;;;;8.98;68.00;97955.34;5063678;28;20187;-67
2021/12/15 03:59:03;;;;;;;11.43;7.57;;;;;;;8.91;68.15;97949.78;5051353;28;20689;-70
2021/12/15 04:01:29;;;;;;;13.70;9.20;;;;;;;8.86;67.66;97951.91;5059158;28;20460;-68
2021/12/15 04:03:55;;;;;;;13.87;8.87;;;;;;;8.86;67.21;97951.91;5063450;28;20456;-69
2021/12/15 04:06:27;;;;;;;9.70;7.30;;;;;;;9.00;67.01;97949.00;5046556;28;20264;-68
2021/12/15 04:08:54;;;;;;;8.40;5.83;;;;;;;9.10;67.06;97948.25;5024427;28;20466;-69
2021/12/15 04:11:22;;;;;;;8.77;6.87;;;;;;;8.94;66.36;97946.91;5061116;28;20504;-68
2021/12/15 04:13:48;;;;;;;9.17;6.60;;;;;;;8.89;66.22;97957.72;5060475;28;20550;-68
2021/12/15 04:16:43;;;;;;;8.80;7.20;;;;;;;8.91;66.68;97952.38;5058880;28;20927;-68
2021/12/15 04:19:09;;;;;;;13.77;9.37;;;;;;;8.89;66.66;97957.72;5061811;28;21623;-69
2021/12/15 04:21:36;;;;;;;15.10;10.50;;;;;;;9.00;66.73;97961.28;5059565;28;20482;-68
2021/12/15 04:24:02;;;;;;;16.50;10.37;;;;;;;9.03;66.32;97951.38;5067074;28;20421;-67
2021/12/15 04:26:27;;;;;;;16.47;10.10;;;;;;;9.07;66.27;97954.59;5068397;28;20958;-69
2021/12/15 04:28:53;;;;;;;14.87;10.30;;;;;;;9.02;66.43;97947.13;5060075;28;20445;-70
2021/12/15 04:31:22;;;;;;;16.13;10.10;;;;;;;8.83;67.13;97947.75;5060400;28;20183;-67
2021/12/15 04:33:50;;;;;;;8.87;6.50;;;;;;;8.97;66.19;97953.66;5067780;28;20437;-69
2021/12/15 04:36:16;;;;;;;12.37;7.70;;;;;;;9.02;65.98;97954.97;5064074;28;20452;-68
2021/12/15 04:38:43;;;;;;;9.43;7.40;;;;;;;9.10;65.77;97954.34;5053535;28;20450;-68
2021/12/15 04:41:12;;;;;;;8.60;7.20;;;;;;;9.14;65.46;97960.97;5063198;28;20439;-68
2021/12/15 04:43:40;;;;;;;10.90;7.80;;;;;;;8.96;65.50;97963.28;5069404;28;20511;-70
2021/12/15 04:46:07;;;;;;;11.70;8.33;;;;;;;9.16;64.74;97959.06;5053524;28;20477;-69
2021/12/15 04:48:34;;;;;;;11.20;8.53;;;;;;;9.03;65.06;97964.47;5071461;28;20519;-68
2021/12/15 04:51:00;;;;;;;8.80;7.20;;;;;;;9.05;65.54;97959.94;5067162;28;20420;-69
2021/12/15 04:53:25;;;;;;;11.07;8.80;;;;;;;9.15;65.18;97967.84;5050892;28;20842;-68
2021/12/15 04:55:51;;;;;;;12.57;9.13;;;;;;;9.10;65.04;97961.34;5069053;28;20186;-68
2021/12/15 04:58:17;;;;;;;10.73;7.77;;;;;;;9.15;65.04;97962.63;5063170;28;20210;-70
2021/12/15 05:00:49;;;;;;;8.77;6.57;;;;;;;9.05;64.70;97966.94;5053305;28;20183;-67
2021/12/15 05:03:15;;;;;;;9.93;7.40;;;;;;;9.13;64.86;97963.72;5064880;28;20182;-69
2021/12/15 05:05:41;;;;;;;12.23;8.40;;;;;;;9.10;65.20;97959.56;5053695;28;20546;-66
2021/12/15 05:08:07;;;;;;;10.03;7.77;;;;;;;9.02;64.87;97962.81;5058039;28;20206;-69
2021/12/15 05:10:33;;;;;;;7.57;6.20;;;;;;;9.07;64.74;97960.63;5046977;28;20202;-66
2021/12/15 05:12:59;;;;;;;7.00;5.63;;;;;;;8.86;64.58;97957.13;5066283;28;20425;-67
2021/12/15 05:15:26;;;;;;;8.43;6.40;;;;;;;8.96;64.80;97960.66;5065271;28;20417;-67
2021/12/15 05:17:52;;;;;;;5.97;5.37;;;;;;;8.93;64.30;97967.94;5053950;28;20210;-69
2021/12/15 05:20:18;;;;;;;6.43;5.80;;;;;;;8.99;64.24;97963.03;5069897;28;20454;-67
2021/12/15 05:22:43;;;;;;;7.63;6.20;;;;;;;9.13;63.99;97961.09;5064090;28;20648;-69
2021/12/15 05:25:09;;;;;;;7.87;6.87;;;;;;;9.03;64.67;97969.69;5050952;28;20429;-68
2021/12/15 05:27:35;;;;;;;10.70;9.00;;;;;;;8.92;64.78;97972.34;5067247;28;20265;-68
2021/12/15 05:30:02;;;;;;;12.50;10.17;;;;;;;8.99;64.86;97967.47;5016055;28;20414;-67
2021/12/15 05:32:27;;;;;;;18.37;12.10;;;;;;;8.91;65.74;97981.97;5033330;28;20521;-70
2021/12/15 05:34:57;;;;;;;16.90;12.30;;;;;;;9.07;65.29;97978.13;5037676;28;20478;-68
2021/12/15 05:37:23;;;;;;;17.50;12.73;;;;;;;8.98;65.26;97982.28;5056445;28;20207;-69
2021/12/15 05:39:50;;;;;;;17.73;11.00;;;;;;;8.53;66.95;97980.59;5043663;28;20455;-67
2021/12/15 05:42:18;;;;;;;9.00;6.67;;;;;;;8.42;67.49;97981.44;5065641;28;20179;-67
2021/12/15 05:44:44;;;;;;;8.13;6.53;;;;;;;8.60;65.66;97986.16;5058659;28;20426;-67
2021/12/15 05:47:09;;;;;;;6.73;5.60;;;;;;;8.58;65.78;97993.28;5075434;28;20461;-68
2021/12/15 05:49:35;;;;;;;5.27;4.23;;;;;;;8.80;64.81;97989.00;5058694;28;20428;-68
2021/12/15 05:52:01;;;;;;;4.70;4.30;;;;;;;8.89;64.91;97999.53;5058360;28;20187;-68
2021/12/15 05:54:27;;;;;;;4.53;4.13;;;;;;;8.95;64.60;97997.41;5066703;28;20665;-68
2021/12/15 05:56:53;;;;;;;4.60;3.90;;;;;;;9.09;64.25;97999.75;5061114;28;20543;-68
2021/12/15 05:59:19;;;;;;;5.50;4.53;;;;;;;9.04;64.46;97996.66;5070133;28;20424;-70
2021/12/15 06:01:45;;;;;;;10.20;8.10;;;;;;;8.65;65.91;97999.72;5072006;28;20515;-69
2021/12/15 06:04:11;;;;;;;14.10;8.67;;;;;;;8.73;65.75;97999.94;5064896;28;20178;-68
2021/12/15 06:06:36;;;;;;;14.00;10.40;;;;;;;8.68;65.65;97999.50;5058749;28;20461;-72
2021/12/15 06:09:07;;;;;;;13.67;10.93;;;;;;;8.69;66.34;98003.75;5044684;28;20493;-68
2021/12/15 06:11:33;;;;;;;14.73;11.37;;;;;;;8.85;65.59;98002.53;5068279;28;20341;-67
2021/12/15 06:13:58;;;;;;;13.67;10.30;;;;;;;8.89;65.36;98009.19;5054326;28;20451;-68
2021/12/15 06:16:24;;;;;;;17.53;12.17;;;;;;;8.69;66.12;98003.75;5064512;28;20417;-68
2021/12/15 06:18:51;;;;;;;14.03;10.60;;;;;;;8.79;66.27;98008.25;5061032;28;20247;-68
2021/12/15 06:21:18;;;;;;;12.90;10.20;;;;;;;8.93;65.57;98015.84;5062407;28;20274;-68
2021/12/15 06:23:44;;;;;;;11.73;9.57;;;;;;;8.97;65.53;98011.19;5056850;28;20474;-71
2021/12/15 06:26:10;;;;;;;8.97;7.70;;;;;;;8.96;65.25;98007.72;5046580;28;20527;-69
2021/12/15 06:28:37;;;;;;;8.27;7.13;;;;;;;8.85;64.87;98007.75;5069659;28;21011;-70
2021/12/15 06:31:06;;;;;;;11.10;7.80;;;;;;;8.69;65.38;98008.16;5059026;28;20202;-68
2021/12/15 06:33:33;;;;;;;16.67;11.07;;;;;;;8.84;65.64;98001.72;5066777;28;20421;-68
2021/12/15 06:36:01;;;;;;;16.87;11.20;;;;;;;8.86;66.07;98007.66;5059430;28;20433;-67
2021/12/15 06:38:33;;;;;;;17.90;12.10;;;;;;;9.02;65.03;98009.03;5056929;28;20445;-71
2021/12/15 06:41:00;;;;;;;13.50;10.60;;;;;;;9.09;65.33;98014.59;5058232;28;20413;-68
2021/12/15 06:43:26;;;;;;;14.10;11.60;;;;;;;8.79;65.39;98018.72;5071524;28;20429;-68
2021/12/15 06:46:07;;;;;;;19.63;12.90;;;;;;;8.67;66.09;98005.66;5069732;28;20879;-70
2021/12/15 06:59:29;;;;;;;14.93;10.87;;;;;;;8.81;64.73;98027.28;5069390;28;20477;-66
2021/12/15 07:01:55;;;;;;;10.60;8.90;;;;;;;8.95;64.98;98032.22;5054336;28;20903;-67
2021/12/15 07:04:21;;;;;;;11.53;9.87;;;;;;;8.90;64.52;98027.34;5062352;28;20653;-68
2021/12/15 07:06:49;;;;;;;12.03;10.17;;;;;;;8.88;65.13;98033.66;5072490;28;20210;-68
2021/12/15 07:09:15;;;;;;;12.83;10.03;;;;;;;8.89;64.88;98043.16;5061226;28;20779;-68
2021/12/15 07:11:41;;;;;;;16.23;11.53;;;;;;;8.84;65.33;98043.53;5063002;28;20521;-69
2021/12/15 07:14:06;;;;;;;15.80;11.83;;;;;;;8.84;65.30;98047.91;5075384;28;20174;-70
2021/12/15 07:16:33;;;;;;;21.07;13.33;;;;;;;8.80;65.43;98046.53;5063808;28;21004;-67
2021/12/15 07:19:09;;;;;;;21.20;14.73;;;;;;;8.56;66.70;98060.56;5057745;28;20202;-69
2021/12/15 07:21:38;;;;;;;23.43;14.87;;;;;;;8.36;67.52;98059.44;5060045;28;20528;-70
2021/12/15 07:24:06;;;;;;;20.80;14.80;;;;;;;8.60;67.14;98059.34;5045452;28;20409;-69
2021/12/15 07:26:33;;;;;;;22.60;15.60;;;;;;;8.57;67.27;98064.78;5062471;28;20439;-69
2021/12/15 07:28:59;;;;;;;20.83;14.13;;;;;;;8.41;67.26;98063.34;5074119;28;20511;-68
2021/12/15 07:31:25;;;;;;;20.33;14.50;;;;;;;8.49;66.63;98075.88;5068031;28;20441;-68
2021/12/15 07:33:50;;;;;;;22.00;15.30;;;;;;;8.66;66.46;98081.56;5057267;28;20190;-67
2021/12/15 07:36:16;;;;;;;16.57;12.77;;;;;;;8.58;66.68;98071.69;5073773;28;20190;-68
2021/12/15 07:38:42;;;;;;;19.60;14.53;;;;;;;8.55;66.47;98075.38;5062904;28;20198;-69
2021/12/15 07:41:30;;;;;;;22.23;15.20;;;;;;;8.37;68.03;98080.19;5057980;28;20183;-68
2021/12/15 07:44:01;;;;;;;21.47;15.67;;;;;;;8.45;66.37;98070.00;5065585;28;20417;-68
2021/12/15 07:46:27;;;;;;;24.67;16.40;;;;;;;8.56;66.16;98084.06;5065754;28;20424;-69
2021/12/15 07:48:53;;;;;;;23.73;15.97;;;;;;;8.40;67.09;98086.97;5059642;28;20828;-70
2021/12/15 07:51:18;;;;;;;20.47;15.37;;;;;;;8.23;67.29;98091.72;5057995;28;20670;-69
2021/12/15 07:53:44;;;;;;;23.07;16.00;;;;;;;8.38;67.00;98094.94;5071238;28;20178;-67
2021/12/15 07:56:11;;;;;;;26.47;17.57;;;;;;;8.55;67.57;98090.25;5035786;28;20179;-67
2021/12/15 07:58:36;;;;;;;23.20;16.20;;;;;;;8.71;66.28;98100.34;5022751;28;20546;-68
2021/12/15 08:01:04;;;;;;;21.97;15.00;;;;;;;8.43;67.55;98091.97;5064816;28;20446;-70
2021/12/15 08:03:31;;;;;;;22.40;14.93;;;;;;;7.98;67.97;98104.00;5072608;28;20213;-68
2021/12/15 08:05:58;;;;;;;22.90;15.63;;;;;;;8.49;67.33;98102.00;5055070;28;20426;-68
2021/12/15 08:08:23;;;;;;;23.27;15.37;;;;;;;8.13;68.32;98098.53;5059691;28;20512;-70
2021/12/15 08:10:53;;;;;;;24.97;17.97;;;;;;;8.56;66.74;98108.41;5072462;28;21065;-68
2021/12/15 08:13:19;;;;;;;25.57;16.13;;;;;;;8.67;67.06;98109.34;5058887;28;20183;-69
2021/12/15 08:15:45;;;;;;;28.67;19.13;;;;;;;8.45;67.25;98111.78;5068201;28;20425;-67
2021/12/15 08:18:11;;;;;;;23.87;15.97;;;;;;;8.65;66.77;98111.25;5057924;28;20300;-69
2021/12/15 08:20:37;;;;;;;27.17;16.53;;;;;;;8.74;66.38;98100.94;5057020;28;20187;-68
2021/12/15 08:23:03;;;;;;;21.53;14.70;;;;;;;8.51;66.64;98104.47;5065346;28;20424;-70
2021/12/15 08:25:30;;;;;;;21.40;14.40;;;;;;;8.52;66.58;98106.13;5058040;28;20495;-70
2021/12/15 08:27:56;;;;;;;13.93;10.87;;;;;;;8.23;67.12;98106.53;5069034;28;20823;-68
2021/12/15 08:30:26;;;;;;;18.53;12.33;;;;;;;7.96;68.21;98110.25;5052006;28;20425;-69
2021/12/15 08:32:57;;;;;;;18.17;13.80;;;;;;;8.12;67.52;98121.22;5066281;28;20232;-69
2021/12/15 08:35:28;;;;;;;17.60;12.27;;;;;;;8.15;67.68;98126.22;5066749;28;20505;-68
2021/12/15 08:37:54;;;;;;;16.70;11.00;;;;;;;7.95;67.55;98121.63;5052241;28;20485;-67
2021/12/15 08:40:21;;;;;;;22.43;11.47;;;;;;;8.05;68.24;98122.66;5072410;28;20428;-67
2021/12/15 08:42:47;;;;;;;28.10;12.23;;;;;;;7.96;68.17;98125.91;5069807;28;20904;-68
2021/12/15 08:45:13;;;;;;;18.63;11.33;;;;;;;8.18;67.33;98129.56;5057526;28;20455;-69
2021/12/15 08:47:39;;;;;;;19.90;12.03;;;;;;;8.35;67.13;98131.72;5063298;28;20736;-68
2021/12/15 08:50:07;;;;;;;19.50;11.40;;;;;;;8.02;67.42;98125.47;5071294;28;20536;-69
2021/12/15 08:52:33;;;;;;;18.20;11.67;;;;;;;8.21;67.17;98134.53;5072434;28;20420;-69
2021/12/15 08:54:59;;;;;;;14.43;9.97;;;;;;;8.37;66.25;98140.28;5056469;28;20511;-67
2021/12/15 08:57:24;;;;;;;14.87;9.67;;;;;;;8.17;66.15;98140.94;5058484;28;20195;-68
2021/12/15 08:59:50;;;;;;;13.90;9.80;;;;;;;8.28;66.69;98138.38;5035936;28;20193;-68
2021/12/15 09:02:16;;;;;;;14.00;10.77;;;;;;;8.25;66.62;98135.97;5060848;28;20179;-68
2021/12/15 09:04:41;;;;;;;14.00;10.30;;;;;;;8.28;66.67;98135.75;5059371;28;20183;-68
2021/12/15 09:07:07;;;;;;;15.33;10.57;;;;;;;8.33;65.24;98133.63;5066168;28;20207;-68
2021/12/15 09:09:33;;;;;;;12.87;9.13;;;;;;;8.25;65.76;98136.78;5051754;28;20187;-69
2021/12/15 09:11:59;;;;;;;18.87;11.13;;;;;;;8.47;66.13;98135.22;5070942;28;20182;-68
2021/12/15 09:14:24;;;;;;;12.70;9.57;;;;;;;8.69;64.49;98117.91;5045410;28;20652;-67
2021/12/15 09:16:56;;;;;;;15.03;9.00;;;;;;;8.52;64.36;98129.66;5044814;28;20421;-70
2021/12/15 09:19:28;;;;;;;13.27;7.73;;;;;;;8.23;65.71;98133.50;5046296;28;20270;-66
2021/12/15 09:21:55;;;;;;;11.80;7.90;;;;;;;8.48;64.95;98125.59;5041874;28;20429;-68
2021/12/15 09:24:21;;;;;;;11.30;8.83;;;;;;;8.58;64.61;98127.41;5057048;28;20429;-67
2021/12/15 09:26:47;;;;;;;11.37;8.40;;;;;;;8.65;64.18;98137.38;5055411;28;20461;-68
2021/12/15 09:29:13;;;;;;;12.10;7.70;;;;;;;8.58;64.44;98135.25;5050154;28;20946;-68
2021/12/15 09:31:39;;;;;;;9.90;7.30;;;;;;;8.66;64.82;98144.28;5048321;28;20190;-69
2021/12/15 09:34:06;;;;;;;12.77;8.50;;;;;;;8.66;64.57;98132.06;5057771;28;20221;-68
2021/12/15 09:36:32;;;;;;;12.20;8.47;;;;;;;8.75;64.48;98136.56;5063556;28;20428;-68
2021/12/15 09:39:04;;;;;;;14.97;7.63;;;;;;;8.76;63.88;98134.78;5045965;28;20446;-68
2021/12/15 09:41:30;;;;;;;10.53;7.20;;;;;;;8.76;63.90;98150.47;5067222;28;20416;-67
2021/12/15 09:43:58;;;;;;;10.53;8.20;;;;;;;8.84;63.38;98142.03;5070743;28;20420;-68
2021/12/15 10:06:06;;;;;;;11.20;7.67;;;;;;;8.71;63.43;98153.44;5050950;28;21740;-68
2021/12/15 10:19:22;;;;;;;10.10;7.03;;;;;;;8.37;63.29;98150.72;5058301;28;20412;-67
2021/12/15 10:22:00;;;;;;;10.53;7.77;;;;;;;8.15;64.41;98139.28;5064833;28;20422;-69
2021/12/15 10:24:33;;;;;;;10.50;7.27;;;;;;;8.31;64.09;98135.53;5055856;28;20422;-68
2021/12/15 10:27:03;;;;;;;11.13;7.90;;;;;;;8.09;64.72;98139.72;5065488;28;20547;-69
2021/12/15 10:29:29;;;;;;;9.73;8.27;;;;;;;7.90;65.01;98142.03;5072467;28;20427;-69
2021/12/15 10:32:01;;;;;;;10.63;8.17;;;;;;;8.23;64.83;98138.72;5066896;28;20427;-68
2021/12/15 10:34:27;;;;;;;12.80;9.30;;;;;;;8.42;63.26;98143.41;5048481;28;20634;-67
2021/12/15 10:36:53;;;;;;;11.73;8.20;;;;;;;8.58;62.50;98139.63;5071790;28;20492;-66
2021/12/15 10:39:21;;;;;;;13.27;8.97;;;;;;;8.53;62.34;98134.75;5060562;28;20420;-66
2021/12/15 10:41:48;;;;;;;15.33;8.77;;;;;;;8.27;64.85;98140.13;5070063;28;20187;-66
2021/12/15 10:44:17;;;;;;;13.67;9.63;;;;;;;8.58;63.16;98137.00;5057067;28;20420;-69
2021/12/15 10:46:49;;;;;;;15.17;10.43;;;;;;;8.35;63.37;98131.72;5073901;28;20520;-67
2021/12/15 10:49:18;;;;;;;12.60;9.00;;;;;;;8.40;63.53;98140.06;5079458;28;20867;-68
2021/12/15 10:51:48;;;;;;;12.27;8.57;;;;;;;8.42;63.80;98132.94;5043066;28;20600;-67
2021/12/15 10:54:24;;;;;;;13.33;9.47;;;;;;;8.62;63.57;98127.19;5052404;28;20426;-69
2021/12/15 10:56:52;;;;;;;13.23;8.20;;;;;;;8.59;62.84;98131.69;5056349;28;20916;-68
2021/12/15 10:59:18;;;;;;;11.80;8.43;;;;;;;8.50;62.94;98135.00;5059550;28;20433;-67
2021/12/15 11:01:56;;;;;;;16.90;8.07;;;;;;;8.48;62.76;98130.84;5039890;28;20416;-67
2021/12/15 11:04:28;;;;;;;10.83;8.10;;;;;;;8.29;64.27;98132.19;5058223;28;20194;-68
2021/12/15 11:07:33;;;;;;;11.30;8.40;;;;;;;8.62;63.33;98133.22;5068075;28;20460;-67
2021/12/15 11:10:16;;;;;;;9.73;7.83;;;;;;;8.67;62.99;98123.28;5066431;28;20420;-68
2021/12/15 11:12:43;;;;;;;11.57;8.63;;;;;;;8.69;62.63;98118.75;5042717;28;20436;-68
2021/12/15 11:15:15;;;;;;;13.33;9.13;;;;;;;8.53;63.27;98131.31;5055859;28;20413;-69
2021/12/15 11:17:58;;;;;;;14.20;9.97;;;;;;;8.47;62.43;98124.75;5069200;28;20476;-68
2021/12/15 11:20:27;;;;;;;12.57;8.93;;;;;;;8.62;61.86;98121.97;5050445;28;20823;-69
2021/12/15 11:22:57;;;;;;;14.40;8.53;;;;;;;8.67;62.48;98115.44;5056929;28;20919;-66
2021/12/15 11:25:41;;;;;;;15.50;9.53;;;;;;;8.47;62.58;98124.75;5052850;28;20425;-69
2021/12/15 11:28:14;;;;;;;22.10;8.30;;;;;;;8.66;62.12;98108.53;5052255;28;20463;-67
2021/12/15 11:30:51;;;;;;;10.07;8.03;;;;;;;8.56;62.68;98107.59;5055555;28;20414;-66
2021/12/15 11:33:19;;;;;;;10.40;8.30;;;;;;;8.21;63.33;98113.66;5056227;28;20512;-68
2021/12/15 11:35:49;;;;;;;11.90;8.60;;;;;;;8.49;62.81;98111.59;5044857;28;20438;-68
2021/12/15 11:38:17;;;;;;;13.50;8.63;;;;;;;8.84;61.15;98102.81;5069520;28;20451;-70
2021/12/15 11:41:12;;;;;;;14.93;8.93;;;;;;;8.69;61.91;98102.22;5060332;28;20438;-68
2021/12/15 11:43:44;;;;;;;16.13;8.57;;;;;;;8.68;61.83;98101.41;5045952;28;20433;-68
2021/12/15 11:46:19;;;;;;;16.57;9.60;;;;;;;8.79;61.43;98099.75;5055053;28;20784;-67
2021/12/15 11:48:48;;;;;;;12.30;8.90;;;;;;;8.81;61.64;98100.47;5060336;28;20854;-68
2021/12/15 11:51:13;;;;;;;16.30;10.50;;;;;;;8.60;61.99;98098.53;5071883;28;21220;-68
2021/12/15 11:53:45;;;;;;;11.30;8.20;;;;;;;8.56;62.92;98089.28;5072658;28;20448;-70
2021/12/15 11:56:22;;;;;;;14.03;8.90;;;;;;;8.71;62.01;98088.09;5049557;28;20190;-67
2021/12/15 11:58:52;;;;;;;17.50;9.20;;;;;;;8.88;61.81;98080.72;5070536;28;20433;-69
2021/12/15 12:01:38;;;;;;;16.50;9.20;;;;;;;8.57;62.29;98076.09;5064524;28;20494;-67
2021/12/15 12:04:22;;;;;;;12.70;9.20;;;;;;;8.55;63.16;98079.78;5070615;28;20404;-68
2021/12/15 12:06:50;;;;;;;13.40;9.17;;;;;;;8.54;62.62;98080.72;5062461;28;20852;-67
2021/12/15 12:09:18;;;;;;;13.13;9.30;;;;;;;8.59;62.78;98074.19;5061202;28;20487;-70
2021/12/15 12:11:50;;;;;;;13.50;10.07;;;;;;;8.62;61.67;98083.56;5053952;28;20809;-68
2021/12/15 12:14:37;;;;;;;12.87;10.17;;;;;;;8.17;64.08;98086.13;5069588;28;20431;-69
2021/12/15 12:17:06;;;;;;;14.97;9.30;;;;;;;8.31;63.31;98070.25;5053671;28;20417;-69
2021/12/15 12:19:32;;;;;;;16.40;9.20;;;;;;;8.43;63.29;98071.91;5064746;28;20409;-67
2021/12/15 12:21:58;;;;;;;21.90;9.60;;;;;;;8.44;62.93;98068.31;5070701;28;20746;-68
2021/12/15 12:24:24;;;;;;;12.77;9.07;;;;;;;8.16;64.05;98067.00;5063219;28;20175;-68
2021/12/15 12:26:50;;;;;;;14.97;10.43;;;;;;;8.06;64.66;98064.25;5062633;28;20921;-68
2021/12/15 12:29:16;;;;;;;15.83;10.70;;;;;;;8.36;63.38;98062.88;5064632;28;20441;-68
2021/12/15 12:31:41;;;;;;;14.50;10.37;;;;;;;8.65;62.97;98057.22;5071380;28;20182;-70
2021/12/15 12:34:07;;;;;;;15.03;9.50;;;;;;;8.75;61.79;98059.94;5062534;28;20182;-67
2021/12/15 12:36:33;;;;;;;15.50;9.90;;;;;;;8.90;61.67;98060.53;5056688;28;20194;-67
2021/12/15 12:39:07;;;;;;;16.07;10.27;;;;;;;8.96;61.63;98064.44;5070342;28;20594;-66
2021/12/15 12:41:40;;;;;;;15.60;11.23;;;;;;;8.86;61.04;98062.56;5073685;28;20526;-69
2021/12/15 12:44:07;;;;;;;18.60;11.53;;;;;;;8.87;61.42;98052.91;5057248;28;20419;-68
2021/12/15 12:46:44;;;;;;;15.40;10.57;;;;;;;8.83;62.17;98054.09;5064913;28;20906;-68